sensor_id;sensor_type;location;lat;lon;timestamp;temperature;humidity
837;DHT22;400;53.550;9.932;2023-01-28T00:01:40;4.90;99.90
837;DHT22;400;53.550;9.932;2023-01-28T00:04:07;5.00;99.90
837;DHT22;400;53.550;9.932;2023-01-28T00:06:34;5.00;99.90
837;DHT22;400;53.550;9.932;2023-01-28T00:09:01;5.10;99.90
837;DHT22;400;53.550;9.932;2023-01-28T00:11:27;5.10;99.90
837;DHT22;400;53.550;9.932;2023-01-28T00:13:54;5.20;99.90
837;DHT22;400;53.550;9.932;2023-01-28T00:16:22;5.20;99.90
837;DHT22;400;53.550;9.932;2023-01-28T00:18:51;5.30;99.90
837;DHT22;400;53.550;9.932;2023-01-28T00:21:18;5.30;99.90
837;DHT22;400;53.550;9.932;2023-01-28T00:23:49;5.20;99.90
837;DHT22;400;53.550;9.932;2023-01-28T00:26:16;5.20;99.90
837;DHT22;400;53.550;9.932;2023-01-28T00:28:43;5.30;99.90
837;DHT22;400;53.550;9.932;2023-01-28T00:31:14;5.30;99.90
837;DHT22;400;53.550;9.932;2023-01-28T00:33:43;5.30;99.90
837;DHT22;400;53.550;9.932;2023-01-28T00:36:11;5.30;99.90
837;DHT22;400;53.550;9.932;2023-01-28T00:38:38;5.30;99.90
837;DHT22;400;53.550;9.932;2023-01-28T00:41:07;5.30;99.90
837;DHT22;400;53.550;9.932;2023-01-28T00:43:35;5.30;99.90
837;DHT22;400;53.550;9.932;2023-01-28T00:46:02;5.30;99.90
837;DHT22;400;53.550;9.932;2023-01-28T00:48:29;5.30;99.90
837;DHT22;400;53.550;9.932;2023-01-28T00:50:57;5.30;99.90
837;DHT22;400;53.550;9.932;2023-01-28T00:53:24;5.30;99.90
837;DHT22;400;53.550;9.932;2023-01-28T00:55:51;5.30;99.90
837;DHT22;400;53.550;9.932;2023-01-28T00:58:19;5.30;99.90
837;DHT22;400;53.550;9.932;2023-01-28T01:00:46;5.30;99.90
837;DHT22;400;53.550;9.932;2023-01-28T01:03:12;5.30;99.90
837;DHT22;400;53.550;9.932;2023-01-28T01:05:39;5.30;99.90
837;DHT22;400;53.550;9.932;2023-01-28T01:08:08;5.30;99.90
837;DHT22;400;53.550;9.932;2023-01-28T01:10:36;5.30;99.90
837;DHT22;400;53.550;9.932;2023-01-28T01:13:04;5.30;99.90
837;DHT22;400;53.550;9.932;2023-01-28T01:15:31;5.30;99.90
837;DHT22;400;53.550;9.932;2023-01-28T01:17:58;5.30;99.90
837;DHT22;400;53.550;9.932;2023-01-28T01:20:27;5.30;99.90
837;DHT22;400;53.550;9.932;2023-01-28T01:22:57;5.30;99.90
837;DHT22;400;53.550;9.932;2023-01-28T01:25:26;5.30;99.90
837;DHT22;400;53.550;9.932;2023-01-28T01:27:52;5.30;99.90
837;DHT22;400;53.550;9.932;2023-01-28T01:30:19;5.30;99.90
837;DHT22;400;53.550;9.932;2023-01-28T01:32:46;5.30;99.90
837;DHT22;400;53.550;9.932;2023-01-28T01:35:14;5.30;99.90
837;DHT22;400;53.550;9.932;2023-01-28T01:37:43;5.30;99.90
837;DHT22;400;53.550;9.932;2023-01-28T01:40:11;5.30;99.90
837;DHT22;400;53.550;9.932;2023-01-28T01:42:39;5.30;99.90
837;DHT22;400;53.550;9.932;2023-01-28T01:45:10;5.30;99.90
837;DHT22;400;53.550;9.932;2023-01-28T01:47:41;5.20;99.90
837;DHT22;400;53.550;9.932;2023-01-28T01:50:15;5.20;99.90
837;DHT22;400;53.550;9.932;2023-01-28T01:52:45;5.30;99.90
837;DHT22;400;53.550;9.932;2023-01-28T01:55:16;5.30;99.90
837;DHT22;400;53.550;9.932;2023-01-28T01:57:47;5.30;99.90
837;DHT22;400;53.550;9.932;2023-01-28T02:00:15;5.30;99.90
837;DHT22;400;53.550;9.932;2023-01-28T02:02:45;5.20;99.90
837;DHT22;400;53.550;9.932;2023-01-28T02:05:15;5.30;99.90
837;DHT22;400;53.550;9.932;2023-01-28T02:07:43;5.20;99.90
837;DHT22;400;53.550;9.932;2023-01-28T02:10:11;5.20;99.90
837;DHT22;400;53.550;9.932;2023-01-28T02:12:40;5.20;99.90
837;DHT22;400;53.550;9.932;2023-01-28T02:15:13;5.20;99.90
837;DHT22;400;53.550;9.932;2023-01-28T02:17:41;5.30;99.90
837;DHT22;400;53.550;9.932;2023-01-28T02:20:10;5.30;99.90
837;DHT22;400;53.550;9.932;2023-01-28T02:23:14;5.30;99.90
837;DHT22;400;53.550;9.932;2023-01-28T02:26:04;5.30;99.90
837;DHT22;400;53.550;9.932;2023-01-28T02:28:40;5.30;99.90
837;DHT22;400;53.550;9.932;2023-01-28T02:31:16;5.30;99.90
837;DHT22;400;53.550;9.932;2023-01-28T02:33:50;5.30;99.90
837;DHT22;400;53.550;9.932;2023-01-28T02:36:23;5.30;99.90
837;DHT22;400;53.550;9.932;2023-01-28T02:38:55;5.30;99.90
837;DHT22;400;53.550;9.932;2023-01-28T02:41:28;5.20;99.90
837;DHT22;400;53.550;9.932;2023-01-28T02:43:57;5.20;99.90
837;DHT22;400;53.550;9.932;2023-01-28T02:46:34;5.20;99.90
837;DHT22;400;53.550;9.932;2023-01-28T02:49:23;5.20;99.90
837;DHT22;400;53.550;9.932;2023-01-28T02:52:13;5.20;99.90
837;DHT22;400;53.550;9.932;2023-01-28T02:54:50;5.20;99.90
837;DHT22;400;53.550;9.932;2023-01-28T02:57:31;5.20;99.90
837;DHT22;400;53.550;9.932;2023-01-28T03:00:06;5.20;99.90
837;DHT22;400;53.550;9.932;2023-01-28T03:02:41;5.20;99.90
837;DHT22;400;53.550;9.932;2023-01-28T03:05:15;5.20;99.90
837;DHT22;400;53.550;9.932;2023-01-28T03:07:45;5.20;99.90
837;DHT22;400;53.550;9.932;2023-01-28T03:10:16;5.20;99.90
837;DHT22;400;53.550;9.932;2023-01-28T03:12:44;5.20;99.90
837;DHT22;400;53.550;9.932;2023-01-28T03:15:35;5.10;99.90
837;DHT22;400;53.550;9.932;2023-01-28T03:18:24;5.10;99.90
837;DHT22;400;53.550;9.932;2023-01-28T03:21:14;5.10;99.90
837;DHT22;400;53.550;9.932;2023-01-28T03:24:02;4.70;99.90
837;DHT22;400;53.550;9.932;2023-01-28T03:26:55;4.70;99.90
837;DHT22;400;53.550;9.932;2023-01-28T03:29:41;4.80;99.90
837;DHT22;400;53.550;9.932;2023-01-28T03:32:29;4.90;99.90
837;DHT22;400;53.550;9.932;2023-01-28T03:35:15;4.80;99.90
837;DHT22;400;53.550;9.932;2023-01-28T03:38:01;4.50;99.90
837;DHT22;400;53.550;9.932;2023-01-28T03:40:48;4.50;99.90
837;DHT22;400;53.550;9.932;2023-01-28T03:43:15;4.20;99.90
837;DHT22;400;53.550;9.932;2023-01-28T03:45:42;4.10;99.90
837;DHT22;400;53.550;9.932;2023-01-28T03:48:12;4.00;99.90
837;DHT22;400;53.550;9.932;2023-01-28T03:50:40;4.00;99.90
837;DHT22;400;53.550;9.932;2023-01-28T03:53:07;4.00;99.90
837;DHT22;400;53.550;9.932;2023-01-28T03:55:40;4.10;99.90
837;DHT22;400;53.550;9.932;2023-01-28T03:58:07;4.00;99.90
837;DHT22;400;53.550;9.932;2023-01-28T04:00:33;3.90;99.90
837;DHT22;400;53.550;9.932;2023-01-28T04:03:02;3.80;99.90
837;DHT22;400;53.550;9.932;2023-01-28T04:05:42;3.80;99.90
837;DHT22;400;53.550;9.932;2023-01-28T04:08:09;3.90;99.90
837;DHT22;400;53.550;9.932;2023-01-28T04:10:37;4.00;99.90
837;DHT22;400;53.550;9.932;2023-01-28T04:13:04;3.90;99.90
837;DHT22;400;53.550;9.932;2023-01-28T04:15:30;3.80;99.90
837;DHT22;400;53.550;9.932;2023-01-28T04:17:57;3.90;99.90
837;DHT22;400;53.550;9.932;2023-01-28T04:20:25;4.10;99.90
837;DHT22;400;53.550;9.932;2023-01-28T04:22:53;4.00;99.90
837;DHT22;400;53.550;9.932;2023-01-28T04:25:20;3.80;99.90
837;DHT22;400;53.550;9.932;2023-01-28T04:27:47;3.90;99.90
837;DHT22;400;53.550;9.932;2023-01-28T04:30:14;3.90;99.90
837;DHT22;400;53.550;9.932;2023-01-28T04:32:41;4.00;99.90
837;DHT22;400;53.550;9.932;2023-01-28T04:35:09;4.10;99.90
837;DHT22;400;53.550;9.932;2023-01-28T04:37:35;4.00;99.90
837;DHT22;400;53.550;9.932;2023-01-28T04:40:05;3.70;99.90
837;DHT22;400;53.550;9.932;2023-01-28T04:42:32;3.60;99.90
837;DHT22;400;53.550;9.932;2023-01-28T04:44:58;3.40;99.90
837;DHT22;400;53.550;9.932;2023-01-28T04:47:25;3.40;99.90
837;DHT22;400;53.550;9.932;2023-01-28T04:49:54;3.30;99.90
837;DHT22;400;53.550;9.932;2023-01-28T04:52:22;3.30;99.90
837;DHT22;400;53.550;9.932;2023-01-28T04:54:49;3.20;99.90
837;DHT22;400;53.550;9.932;2023-01-28T04:57:17;3.30;99.90
837;DHT22;400;53.550;9.932;2023-01-28T04:59:44;3.40;99.90
837;DHT22;400;53.550;9.932;2023-01-28T05:02:11;3.30;99.90
837;DHT22;400;53.550;9.932;2023-01-28T05:04:39;3.20;99.90
837;DHT22;400;53.550;9.932;2023-01-28T05:07:07;3.30;99.90
837;DHT22;400;53.550;9.932;2023-01-28T05:09:34;3.20;99.90
837;DHT22;400;53.550;9.932;2023-01-28T05:12:01;3.10;99.90
837;DHT22;400;53.550;9.932;2023-01-28T05:14:29;3.20;99.90
837;DHT22;400;53.550;9.932;2023-01-28T05:16:56;3.40;99.90
837;DHT22;400;53.550;9.932;2023-01-28T05:19:23;3.60;99.90
837;DHT22;400;53.550;9.932;2023-01-28T05:21:50;3.70;99.90
837;DHT22;400;53.550;9.932;2023-01-28T05:24:16;3.70;99.90
837;DHT22;400;53.550;9.932;2023-01-28T05:26:43;3.80;99.90
837;DHT22;400;53.550;9.932;2023-01-28T05:29:10;3.90;99.90
837;DHT22;400;53.550;9.932;2023-01-28T05:31:38;4.00;99.90
837;DHT22;400;53.550;9.932;2023-01-28T05:34:07;4.00;99.90
837;DHT22;400;53.550;9.932;2023-01-28T05:36:34;4.00;99.90
837;DHT22;400;53.550;9.932;2023-01-28T05:39:01;4.00;99.90
837;DHT22;400;53.550;9.932;2023-01-28T05:41:28;4.00;99.90
837;DHT22;400;53.550;9.932;2023-01-28T05:43:55;3.90;99.90
837;DHT22;400;53.550;9.932;2023-01-28T05:46:22;3.70;99.90
837;DHT22;400;53.550;9.932;2023-01-28T05:48:51;3.70;99.90
837;DHT22;400;53.550;9.932;2023-01-28T05:51:18;3.50;99.90
837;DHT22;400;53.550;9.932;2023-01-28T05:53:46;3.30;99.90
837;DHT22;400;53.550;9.932;2023-01-28T05:56:13;3.20;99.90
837;DHT22;400;53.550;9.932;2023-01-28T05:58:40;3.30;99.90
837;DHT22;400;53.550;9.932;2023-01-28T06:01:07;3.40;99.90
837;DHT22;400;53.550;9.932;2023-01-28T06:03:34;3.60;99.90
837;DHT22;400;53.550;9.932;2023-01-28T06:06:07;3.50;99.90
837;DHT22;400;53.550;9.932;2023-01-28T06:08:34;3.50;99.90
837;DHT22;400;53.550;9.932;2023-01-28T06:11:01;3.20;99.90
837;DHT22;400;53.550;9.932;2023-01-28T06:13:28;3.20;99.90
837;DHT22;400;53.550;9.932;2023-01-28T06:15:58;3.30;99.90
837;DHT22;400;53.550;9.932;2023-01-28T06:18:29;3.40;99.90
837;DHT22;400;53.550;9.932;2023-01-28T06:21:02;3.50;99.90
837;DHT22;400;53.550;9.932;2023-01-28T06:23:31;3.60;99.90
837;DHT22;400;53.550;9.932;2023-01-28T06:25:58;3.70;99.90
837;DHT22;400;53.550;9.932;2023-01-28T06:28:25;3.50;99.90
837;DHT22;400;53.550;9.932;2023-01-28T06:30:52;3.40;99.90
837;DHT22;400;53.550;9.932;2023-01-28T06:33:20;3.40;99.90
837;DHT22;400;53.550;9.932;2023-01-28T06:35:48;3.50;99.90
837;DHT22;400;53.550;9.932;2023-01-28T06:38:15;3.50;99.90
837;DHT22;400;53.550;9.932;2023-01-28T06:40:44;3.50;99.90
837;DHT22;400;53.550;9.932;2023-01-28T06:43:10;3.60;99.90
837;DHT22;400;53.550;9.932;2023-01-28T06:45:37;3.60;99.90
837;DHT22;400;53.550;9.932;2023-01-28T06:48:04;3.70;99.90
837;DHT22;400;53.550;9.932;2023-01-28T06:50:31;3.60;99.90
837;DHT22;400;53.550;9.932;2023-01-28T06:52:58;3.40;99.90
837;DHT22;400;53.550;9.932;2023-01-28T06:55:25;3.30;99.90
837;DHT22;400;53.550;9.932;2023-01-28T06:57:53;3.20;99.90
837;DHT22;400;53.550;9.932;2023-01-28T07:00:20;3.10;99.90
837;DHT22;400;53.550;9.932;2023-01-28T07:02:47;2.90;99.90
837;DHT22;400;53.550;9.932;2023-01-28T07:05:14;2.70;99.90
837;DHT22;400;53.550;9.932;2023-01-28T07:07:41;2.50;99.90
837;DHT22;400;53.550;9.932;2023-01-28T07:10:09;2.50;99.90
837;DHT22;400;53.550;9.932;2023-01-28T07:12:36;2.40;99.90
837;DHT22;400;53.550;9.932;2023-01-28T07:15:05;2.10;99.90
837;DHT22;400;53.550;9.932;2023-01-28T07:17:33;2.00;99.90
837;DHT22;400;53.550;9.932;2023-01-28T07:19:59;2.00;99.90
837;DHT22;400;53.550;9.932;2023-01-28T07:22:26;1.90;99.90
837;DHT22;400;53.550;9.932;2023-01-28T07:24:53;1.90;99.90
837;DHT22;400;53.550;9.932;2023-01-28T07:27:20;1.90;99.90
837;DHT22;400;53.550;9.932;2023-01-28T07:29:47;1.90;99.90
837;DHT22;400;53.550;9.932;2023-01-28T07:32:15;2.00;99.90
837;DHT22;400;53.550;9.932;2023-01-28T07:34:42;2.10;99.90
837;DHT22;400;53.550;9.932;2023-01-28T07:37:09;2.10;99.90
837;DHT22;400;53.550;9.932;2023-01-28T07:39:36;2.10;99.90
837;DHT22;400;53.550;9.932;2023-01-28T07:42:03;2.20;99.90
837;DHT22;400;53.550;9.932;2023-01-28T07:44:30;2.30;99.90
837;DHT22;400;53.550;9.932;2023-01-28T07:46:56;2.30;99.90
837;DHT22;400;53.550;9.932;2023-01-28T07:49:25;2.10;99.90
837;DHT22;400;53.550;9.932;2023-01-28T07:51:51;2.10;99.90
837;DHT22;400;53.550;9.932;2023-01-28T07:54:21;2.10;99.90
837;DHT22;400;53.550;9.932;2023-01-28T07:56:51;2.10;99.90
837;DHT22;400;53.550;9.932;2023-01-28T07:59:18;2.10;99.90
837;DHT22;400;53.550;9.932;2023-01-28T08:01:46;2.10;99.90
837;DHT22;400;53.550;9.932;2023-01-28T08:04:15;2.00;99.90
837;DHT22;400;53.550;9.932;2023-01-28T08:06:49;2.00;99.90
837;DHT22;400;53.550;9.932;2023-01-28T08:09:21;1.90;99.90
837;DHT22;400;53.550;9.932;2023-01-28T08:11:50;2.10;99.90
837;DHT22;400;53.550;9.932;2023-01-28T08:14:17;2.10;99.90
837;DHT22;400;53.550;9.932;2023-01-28T08:16:44;1.80;99.90
837;DHT22;400;53.550;9.932;2023-01-28T08:19:11;1.80;99.90
837;DHT22;400;53.550;9.932;2023-01-28T08:21:38;1.90;99.90
837;DHT22;400;53.550;9.932;2023-01-28T08:24:12;2.00;99.90
837;DHT22;400;53.550;9.932;2023-01-28T08:26:47;2.10;99.90
837;DHT22;400;53.550;9.932;2023-01-28T08:29:14;2.20;99.90
837;DHT22;400;53.550;9.932;2023-01-28T08:31:41;2.30;99.90
837;DHT22;400;53.550;9.932;2023-01-28T08:34:08;2.10;99.90
837;DHT22;400;53.550;9.932;2023-01-28T08:36:35;2.00;99.90
837;DHT22;400;53.550;9.932;2023-01-28T08:39:02;2.00;99.90
837;DHT22;400;53.550;9.932;2023-01-28T08:41:30;2.10;99.90
837;DHT22;400;53.550;9.932;2023-01-28T08:43:57;2.30;99.90
837;DHT22;400;53.550;9.932;2023-01-28T08:46:24;2.40;99.90
837;DHT22;400;53.550;9.932;2023-01-28T08:48:51;2.40;99.90
837;DHT22;400;53.550;9.932;2023-01-28T08:51:18;2.40;99.90
837;DHT22;400;53.550;9.932;2023-01-28T08:53:45;2.30;99.90
837;DHT22;400;53.550;9.932;2023-01-28T08:56:12;2.20;99.90
837;DHT22;400;53.550;9.932;2023-01-28T08:58:41;2.20;99.90
837;DHT22;400;53.550;9.932;2023-01-28T09:01:10;2.00;99.90
837;DHT22;400;53.550;9.932;2023-01-28T09:03:38;2.10;99.90
837;DHT22;400;53.550;9.932;2023-01-28T09:06:05;2.20;99.90
837;DHT22;400;53.550;9.932;2023-01-28T09:08:32;2.20;99.90
837;DHT22;400;53.550;9.932;2023-01-28T09:11:00;2.20;99.90
837;DHT22;400;53.550;9.932;2023-01-28T09:13:27;2.30;99.90
837;DHT22;400;53.550;9.932;2023-01-28T09:15:58;2.30;99.90
837;DHT22;400;53.550;9.932;2023-01-28T09:18:25;2.30;99.90
837;DHT22;400;53.550;9.932;2023-01-28T09:20:51;2.40;99.90
837;DHT22;400;53.550;9.932;2023-01-28T09:23:18;2.40;99.90
837;DHT22;400;53.550;9.932;2023-01-28T09:25:45;2.40;99.90
837;DHT22;400;53.550;9.932;2023-01-28T09:28:12;2.40;99.90
837;DHT22;400;53.550;9.932;2023-01-28T09:30:39;2.40;99.90
837;DHT22;400;53.550;9.932;2023-01-28T09:33:08;2.40;99.90
837;DHT22;400;53.550;9.932;2023-01-28T09:35:35;2.50;99.90
837;DHT22;400;53.550;9.932;2023-01-28T09:38:04;2.40;99.90
837;DHT22;400;53.550;9.932;2023-01-28T09:40:35;2.50;99.90
837;DHT22;400;53.550;9.932;2023-01-28T09:43:18;2.70;99.90
837;DHT22;400;53.550;9.932;2023-01-28T09:45:51;2.80;99.90
837;DHT22;400;53.550;9.932;2023-01-28T09:48:29;2.80;99.90
837;DHT22;400;53.550;9.932;2023-01-28T09:51:05;2.90;99.90
837;DHT22;400;53.550;9.932;2023-01-28T09:53:54;2.90;99.90
837;DHT22;400;53.550;9.932;2023-01-28T09:56:25;3.10;99.90
837;DHT22;400;53.550;9.932;2023-01-28T09:59:13;3.20;99.90
837;DHT22;400;53.550;9.932;2023-01-28T10:01:53;3.20;99.90
837;DHT22;400;53.550;9.932;2023-01-28T10:04:33;3.10;99.90
837;DHT22;400;53.550;9.932;2023-01-28T10:07:17;3.40;99.90
837;DHT22;400;53.550;9.932;2023-01-28T10:09:49;3.50;99.90
837;DHT22;400;53.550;9.932;2023-01-28T10:15:46;3.20;99.90
837;DHT22;400;53.550;9.932;2023-01-28T10:18:14;3.40;99.90
837;DHT22;400;53.550;9.932;2023-01-28T10:20:44;3.60;99.90
837;DHT22;400;53.550;9.932;2023-01-28T10:23:16;3.70;99.90
837;DHT22;400;53.550;9.932;2023-01-28T10:25:46;3.80;99.90
837;DHT22;400;53.550;9.932;2023-01-28T10:28:19;3.90;99.90
837;DHT22;400;53.550;9.932;2023-01-28T10:30:49;3.80;99.90
837;DHT22;400;53.550;9.932;2023-01-28T10:33:19;4.00;99.90
837;DHT22;400;53.550;9.932;2023-01-28T10:35:51;3.80;99.90
837;DHT22;400;53.550;9.932;2023-01-28T10:38:21;3.90;99.90
837;DHT22;400;53.550;9.932;2023-01-28T10:40:49;3.90;99.90
837;DHT22;400;53.550;9.932;2023-01-28T10:43:17;3.70;99.90
837;DHT22;400;53.550;9.932;2023-01-28T10:45:55;3.60;99.90
837;DHT22;400;53.550;9.932;2023-01-28T10:48:25;3.60;99.90
837;DHT22;400;53.550;9.932;2023-01-28T10:51:02;3.40;99.90
837;DHT22;400;53.550;9.932;2023-01-28T10:53:36;3.30;99.90
837;DHT22;400;53.550;9.932;2023-01-28T10:56:06;3.60;99.90
837;DHT22;400;53.550;9.932;2023-01-28T10:58:36;3.80;99.90
837;DHT22;400;53.550;9.932;2023-01-28T11:01:12;4.00;99.90
837;DHT22;400;53.550;9.932;2023-01-28T11:03:40;4.10;99.90
837;DHT22;400;53.550;9.932;2023-01-28T11:06:26;4.30;99.90
837;DHT22;400;53.550;9.932;2023-01-28T11:08:58;4.30;99.90
837;DHT22;400;53.550;9.932;2023-01-28T11:11:27;4.20;99.90
837;DHT22;400;53.550;9.932;2023-01-28T11:13:54;4.00;99.90
837;DHT22;400;53.550;9.932;2023-01-28T11:16:25;4.10;99.90
837;DHT22;400;53.550;9.932;2023-01-28T11:18:58;4.00;99.90
837;DHT22;400;53.550;9.932;2023-01-28T11:21:35;3.60;99.90
837;DHT22;400;53.550;9.932;2023-01-28T11:24:12;3.70;99.90
837;DHT22;400;53.550;9.932;2023-01-28T11:26:44;4.00;99.90
837;DHT22;400;53.550;9.932;2023-01-28T11:29:21;4.20;99.90
837;DHT22;400;53.550;9.932;2023-01-28T11:31:49;4.30;99.90
837;DHT22;400;53.550;9.932;2023-01-28T11:34:18;4.50;99.90
837;DHT22;400;53.550;9.932;2023-01-28T11:36:54;4.50;99.90
837;DHT22;400;53.550;9.932;2023-01-28T11:39:22;4.50;99.90
837;DHT22;400;53.550;9.932;2023-01-28T11:41:51;4.10;99.90
837;DHT22;400;53.550;9.932;2023-01-28T11:44:20;4.20;99.90
837;DHT22;400;53.550;9.932;2023-01-28T11:47:16;4.00;99.90
837;DHT22;400;53.550;9.932;2023-01-28T11:50:03;4.20;99.90
837;DHT22;400;53.550;9.932;2023-01-28T11:52:45;4.20;99.90
837;DHT22;400;53.550;9.932;2023-01-28T11:55:35;4.40;99.90
837;DHT22;400;53.550;9.932;2023-01-28T11:58:14;4.60;99.90
837;DHT22;400;53.550;9.932;2023-01-28T12:00:56;4.60;99.90
837;DHT22;400;53.550;9.932;2023-01-28T12:03:38;4.60;99.90
837;DHT22;400;53.550;9.932;2023-01-28T12:06:31;4.60;99.90
837;DHT22;400;53.550;9.932;2023-01-28T12:09:10;4.70;99.90
837;DHT22;400;53.550;9.932;2023-01-28T12:11:49;4.90;99.90
837;DHT22;400;53.550;9.932;2023-01-28T12:14:56;4.90;99.90
837;DHT22;400;53.550;9.932;2023-01-28T12:17:42;4.90;99.90
837;DHT22;400;53.550;9.932;2023-01-28T12:20:23;4.90;99.90
837;DHT22;400;53.550;9.932;2023-01-28T12:23:14;5.00;99.90
837;DHT22;400;53.550;9.932;2023-01-28T12:26:00;5.00;99.90
837;DHT22;400;53.550;9.932;2023-01-28T12:28:45;4.50;99.90
837;DHT22;400;53.550;9.932;2023-01-28T12:31:41;4.60;99.90
837;DHT22;400;53.550;9.932;2023-01-28T12:34:46;4.60;99.90
837;DHT22;400;53.550;9.932;2023-01-28T12:37:25;4.70;99.90
837;DHT22;400;53.550;9.932;2023-01-28T12:40:07;5.00;99.90
837;DHT22;400;53.550;9.932;2023-01-28T12:42:43;5.00;99.90
837;DHT22;400;53.550;9.932;2023-01-28T12:45:15;5.20;99.90
837;DHT22;400;53.550;9.932;2023-01-28T12:47:48;5.30;99.90
837;DHT22;400;53.550;9.932;2023-01-28T12:50:21;5.50;99.90
837;DHT22;400;53.550;9.932;2023-01-28T12:52:54;5.50;99.90
837;DHT22;400;53.550;9.932;2023-01-28T12:55:37;5.60;99.90
837;DHT22;400;53.550;9.932;2023-01-28T12:58:15;5.10;99.90
837;DHT22;400;53.550;9.932;2023-01-28T13:00:48;4.90;99.90
837;DHT22;400;53.550;9.932;2023-01-28T13:03:20;4.50;99.90
837;DHT22;400;53.550;9.932;2023-01-28T13:05:54;4.70;99.90
837;DHT22;400;53.550;9.932;2023-01-28T13:08:30;4.90;99.90
837;DHT22;400;53.550;9.932;2023-01-28T13:11:01;4.80;99.90
837;DHT22;400;53.550;9.932;2023-01-28T13:13:32;5.00;99.90
837;DHT22;400;53.550;9.932;2023-01-28T13:16:03;5.10;99.90
837;DHT22;400;53.550;9.932;2023-01-28T13:18:41;5.20;99.90
837;DHT22;400;53.550;9.932;2023-01-28T13:21:14;5.30;99.90
837;DHT22;400;53.550;9.932;2023-01-28T13:23:43;5.30;99.90
837;DHT22;400;53.550;9.932;2023-01-28T13:26:28;5.30;99.90
837;DHT22;400;53.550;9.932;2023-01-28T13:29:16;5.30;99.90
837;DHT22;400;53.550;9.932;2023-01-28T13:31:46;5.10;99.90
837;DHT22;400;53.550;9.932;2023-01-28T13:34:28;4.90;99.90
837;DHT22;400;53.550;9.932;2023-01-28T13:36:58;4.70;99.90
837;DHT22;400;53.550;9.932;2023-01-28T13:39:26;4.70;99.90
837;DHT22;400;53.550;9.932;2023-01-28T13:42:06;4.70;99.90
837;DHT22;400;53.550;9.932;2023-01-28T13:44:38;4.90;99.90
837;DHT22;400;53.550;9.932;2023-01-28T13:47:18;5.00;99.90
837;DHT22;400;53.550;9.932;2023-01-28T13:49:49;5.10;99.90
837;DHT22;400;53.550;9.932;2023-01-28T13:52:25;5.20;99.90
837;DHT22;400;53.550;9.932;2023-01-28T13:54:59;5.20;99.90
837;DHT22;400;53.550;9.932;2023-01-28T14:03:55;5.40;99.90
837;DHT22;400;53.550;9.932;2023-01-28T14:06:56;5.30;99.90
837;DHT22;400;53.550;9.932;2023-01-28T14:09:51;5.20;99.90
837;DHT22;400;53.550;9.932;2023-01-28T14:12:42;5.00;99.90
837;DHT22;400;53.550;9.932;2023-01-28T14:18:26;4.70;99.90
837;DHT22;400;53.550;9.932;2023-01-28T14:20:55;4.70;99.90
837;DHT22;400;53.550;9.932;2023-01-28T14:23:27;4.80;99.90
837;DHT22;400;53.550;9.932;2023-01-28T14:26:05;4.90;99.90
837;DHT22;400;53.550;9.932;2023-01-28T14:28:44;5.10;99.90
837;DHT22;400;53.550;9.932;2023-01-28T14:31:23;5.20;99.90
837;DHT22;400;53.550;9.932;2023-01-28T14:34:05;5.10;99.90
837;DHT22;400;53.550;9.932;2023-01-28T14:36:36;5.20;99.90
837;DHT22;400;53.550;9.932;2023-01-28T14:39:10;5.20;99.90
837;DHT22;400;53.550;9.932;2023-01-28T14:41:42;5.20;99.90
837;DHT22;400;53.550;9.932;2023-01-28T14:44:13;5.00;99.90
837;DHT22;400;53.550;9.932;2023-01-28T14:46:54;5.10;99.90
837;DHT22;400;53.550;9.932;2023-01-28T14:49:30;5.20;99.90
837;DHT22;400;53.550;9.932;2023-01-28T14:52:18;4.90;99.90
837;DHT22;400;53.550;9.932;2023-01-28T14:54:55;4.60;99.90
837;DHT22;400;53.550;9.932;2023-01-28T14:58:01;4.60;99.90
837;DHT22;400;53.550;9.932;2023-01-28T15:00:38;4.60;99.90
837;DHT22;400;53.550;9.932;2023-01-28T15:03:16;4.70;99.90
837;DHT22;400;53.550;9.932;2023-01-28T15:05:49;4.40;99.90
837;DHT22;400;53.550;9.932;2023-01-28T15:08:20;4.50;99.90
837;DHT22;400;53.550;9.932;2023-01-28T15:10:50;4.50;99.90
837;DHT22;400;53.550;9.932;2023-01-28T15:13:24;4.70;99.90
837;DHT22;400;53.550;9.932;2023-01-28T15:15:55;4.90;99.90
837;DHT22;400;53.550;9.932;2023-01-28T15:18:29;5.00;99.90
837;DHT22;400;53.550;9.932;2023-01-28T15:21:00;5.10;99.90
837;DHT22;400;53.550;9.932;2023-01-28T15:23:31;5.10;99.90
837;DHT22;400;53.550;9.932;2023-01-28T15:25:59;5.20;99.90
837;DHT22;400;53.550;9.932;2023-01-28T15:28:31;5.30;99.90
837;DHT22;400;53.550;9.932;2023-01-28T15:30:59;5.40;99.90
837;DHT22;400;53.550;9.932;2023-01-28T15:33:29;5.50;99.90
837;DHT22;400;53.550;9.932;2023-01-28T15:35:59;5.40;99.90
837;DHT22;400;53.550;9.932;2023-01-28T15:38:29;5.50;99.90
837;DHT22;400;53.550;9.932;2023-01-28T15:41:00;5.40;99.90
837;DHT22;400;53.550;9.932;2023-01-28T15:43:30;5.40;99.90
837;DHT22;400;53.550;9.932;2023-01-28T15:45:59;5.40;99.90
837;DHT22;400;53.550;9.932;2023-01-28T15:48:29;5.40;99.90
837;DHT22;400;53.550;9.932;2023-01-28T15:51:00;5.40;99.90
837;DHT22;400;53.550;9.932;2023-01-28T15:53:32;5.40;99.90
837;DHT22;400;53.550;9.932;2023-01-28T15:56:06;5.40;99.90
837;DHT22;400;53.550;9.932;2023-01-28T15:58:33;5.40;99.90
837;DHT22;400;53.550;9.932;2023-01-28T16:01:15;5.30;99.90
837;DHT22;400;53.550;9.932;2023-01-28T16:04:00;5.30;99.90
837;DHT22;400;53.550;9.932;2023-01-28T16:06:36;5.40;99.90
837;DHT22;400;53.550;9.932;2023-01-28T16:09:18;5.30;99.90
837;DHT22;400;53.550;9.932;2023-01-28T16:11:48;5.30;99.90
837;DHT22;400;53.550;9.932;2023-01-28T16:14:35;5.30;99.90
837;DHT22;400;53.550;9.932;2023-01-28T16:17:07;5.30;99.90
837;DHT22;400;53.550;9.932;2023-01-28T16:19:39;5.00;99.90
837;DHT22;400;53.550;9.932;2023-01-28T16:22:18;5.00;99.90
837;DHT22;400;53.550;9.932;2023-01-28T16:24:51;5.10;99.90
837;DHT22;400;53.550;9.932;2023-01-28T16:27:22;5.10;99.90
837;DHT22;400;53.550;9.932;2023-01-28T16:29:54;5.20;99.90
837;DHT22;400;53.550;9.932;2023-01-28T16:32:33;5.30;99.90
837;DHT22;400;53.550;9.932;2023-01-28T16:35:13;5.20;99.90
837;DHT22;400;53.550;9.932;2023-01-28T16:37:46;5.10;99.90
837;DHT22;400;53.550;9.932;2023-01-28T16:40:31;5.20;99.90
837;DHT22;400;53.550;9.932;2023-01-28T16:43:13;5.10;99.90
837;DHT22;400;53.550;9.932;2023-01-28T16:45:48;5.20;99.90
837;DHT22;400;53.550;9.932;2023-01-28T16:48:15;5.10;99.90
837;DHT22;400;53.550;9.932;2023-01-28T16:50:42;5.20;99.90
837;DHT22;400;53.550;9.932;2023-01-28T16:53:17;5.10;99.90
837;DHT22;400;53.550;9.932;2023-01-28T16:55:45;5.20;99.90
837;DHT22;400;53.550;9.932;2023-01-28T16:58:15;5.20;99.90
837;DHT22;400;53.550;9.932;2023-01-28T17:00:43;5.30;99.90
837;DHT22;400;53.550;9.932;2023-01-28T17:03:31;4.90;99.90
837;DHT22;400;53.550;9.932;2023-01-28T17:06:01;5.00;99.90
837;DHT22;400;53.550;9.932;2023-01-28T17:08:33;5.10;99.90
837;DHT22;400;53.550;9.932;2023-01-28T17:11:03;5.20;99.90
837;DHT22;400;53.550;9.932;2023-01-28T17:13:31;5.20;99.90
837;DHT22;400;53.550;9.932;2023-01-28T17:16:00;5.00;99.90
837;DHT22;400;53.550;9.932;2023-01-28T17:18:27;4.80;99.90
837;DHT22;400;53.550;9.932;2023-01-28T17:20:59;4.80;99.90
837;DHT22;400;53.550;9.932;2023-01-28T17:23:26;4.90;99.90
837;DHT22;400;53.550;9.932;2023-01-28T17:25:54;5.00;99.90
837;DHT22;400;53.550;9.932;2023-01-28T17:28:21;5.00;99.90
837;DHT22;400;53.550;9.932;2023-01-28T17:30:48;5.10;99.90
837;DHT22;400;53.550;9.932;2023-01-28T17:33:15;5.10;99.90
837;DHT22;400;53.550;9.932;2023-01-28T17:35:45;5.20;99.90
837;DHT22;400;53.550;9.932;2023-01-28T17:38:17;5.20;99.90